Aérodrome :
LOGIN :

S'inscrire | Disclaimer

   EN    FR    IT 

 










Légende :    VFR   VFR Marginal   IFR   IFR Intensif   IFR Très Intensif
Visi : 
Plafond : 
>= 8 km
>= 3000ft
5 à 8 km
1000 à 3000 ft
1500m à 5 km
500 à 1000 ft
800 à 1500m
200 à 500 ft
< 800m
< 200 ft
Symboles :   Orages  Brouillard  Fortes neiges  Fortes précipitations  Vent > 20 kt
SIGMETs :   Divers  Orages  Givrage  Turbulence  Onde Orograph.  Cendres Volcan.






- Altitude de l'aérodrome : 433 ft
- Code IATA : CCF


LFMK - Carcassonne

DERNIER METAR :
  • 081500Z AUTO 27010KT 220V290 9999 FEW028/// ///TCU 14/08 Q1015 BECMG SCT030 SCT060

METARs EXPIRÉS :
  • 081430Z AUTO 27010KT 230V300 9999 FEW029/// ///TCU 14/07 Q1015 BECMG SCT030 SCT060
  • 081400Z AUTO 27013KT CAVOK 14/08 Q1015 NOSIG
  • 081330Z AUTO 28013KT 9999 FEW021 14/08 Q1016 NOSIG
  • 081300Z AUTO 28013KT 230V310 9999 FEW020 13/08 Q1016 NOSIG
  • 081230Z AUTO 28013KT 230V300 9999 FEW020 13/08 Q1017 NOSIG

TAF AMD TAF LFMK
Valide du 08 à 10h jusqu'au 09 à 09h UTC


081033Z 0810/0909 28012KT 9999 BKN013
BECMG 0811/0814 SCT030 SCT060
BECMG 0823/0901 BKN010



MET'MAP, la Météo Aéronautique d'un coup d'oeil ! - Copyright ORBIFLY Décembre 2007 - Disclaimer

ORBIFLY MET'MAP TEAM :

Programmation & Développement : Alexandra Zaïnal
Sur une idée originale de : Baudouin d'Aumeries
Assistance à la programmation : Marc-Olivier Méhu
Soutien technique & logistique : Manuel Goepfert

Contact : metmap@orbifly.com




SOURCES & CREDITS :

   NOAA